Time,TemperatureF,DewpointF,PressureIn,WindDirection,WindDirectionDegrees,WindSpeedMPH,WindSpeedGustMPH,Humidity,HourlyPrecipIn,Conditions,Clouds,dailyrainin,SoftwareType,DateUTC
2013-07-28 00:00:00,53.6,45.9,29.95,NNW,338,1.8,1.8,75,0.00,,,0.00,WUHU216HW,2013-07-28 05:00:00,
2013-07-28 00:05:00,53.6,45.9,29.95,North,0,4.9,4.9,75,0.00,,,0.00,WUHU216HW,2013-07-28 05:05:00,
2013-07-28 00:10:00,53.6,45.9,29.95,North,0,4.9,4.9,75,0.00,,,0.00,WUHU216HW,2013-07-28 05:10:00,
2013-07-28 00:30:00,53.5,45.7,29.95,North,0,2.5,2.5,75,0.00,,,0.00,WUHU216HW,2013-07-28 05:30:00,
2013-07-28 00:35:00,53.5,45.7,29.95,NNW,338,2.5,2.5,75,0.00,,,0.00,WUHU216HW,2013-07-28 05:35:00,
2013-07-28 00:36:00,53.5,45.7,29.95,NNW,338,2.5,2.5,75,0.00,,,0.00,WUHU216HW,2013-07-28 05:36:00,
2013-07-28 00:40:00,53.5,45.7,29.95,NNW,338,2.5,2.5,75,0.00,,,0.00,WUHU216HW,2013-07-28 05:40:00,
2013-07-28 01:00:00,52.9,45.2,29.94,North,0,8.3,8.3,75,0.00,,,0.00,WUHU216HW,2013-07-28 06:00:00,
2013-07-28 01:05:00,52.9,45.2,29.94,NNW,338,2.5,8.3,75,0.00,,,0.00,WUHU216HW,2013-07-28 06:05:00,
2013-07-28 01:10:00,52.9,45.2,29.94,NNW,338,2.5,2.5,75,0.00,,,0.00,WUHU216HW,2013-07-28 06:10:00,
2013-07-28 01:30:00,52.2,44.9,29.94,NW,315,2.5,2.5,76,0.00,,,0.00,WUHU216HW,2013-07-28 06:30:00,
2013-07-28 01:35:00,52.2,44.9,29.94,WNW,293,4.0,4.0,76,0.00,,,0.00,WUHU216HW,2013-07-28 06:35:00,
2013-07-28 01:36:00,52.2,44.9,29.94,WNW,293,4.0,4.0,76,0.00,,,0.00,WUHU216HW,2013-07-28 06:36:00,
2013-07-28 01:40:00,52.2,44.9,29.94,WNW,293,4.0,4.0,76,0.00,,,0.00,WUHU216HW,2013-07-28 06:40:00,
2013-07-28 02:00:00,52.0,45.1,29.94,NNW,338,2.0,2.0,77,0.00,,,0.00,WUHU216HW,2013-07-28 07:00:00,
2013-07-28 02:05:00,52.0,45.1,29.94,WNW,293,1.8,2.0,77,0.00,,,0.00,WUHU216HW,2013-07-28 07:05:00,
2013-07-28 02:10:00,52.0,45.1,29.94,WNW,293,1.8,2.0,77,0.00,,,0.00,WUHU216HW,2013-07-28 07:10:00,
2013-07-28 02:30:00,51.8,44.9,29.95,NNW,338,1.1,1.1,77,0.00,,,0.00,WUHU216HW,2013-07-28 07:30:00,
2013-07-28 02:31:00,51.8,44.9,29.95,NNE,23,1.8,1.8,77,0.00,,,0.00,WUHU216HW,2013-07-28 07:31:00,
2013-07-28 02:35:00,51.8,44.9,29.95,NNE,23,1.8,1.8,77,0.00,,,0.00,WUHU216HW,2013-07-28 07:35:00,
2013-07-28 02:36:00,51.8,44.9,29.95,NNE,23,1.8,1.8,77,0.00,,,0.00,WUHU216HW,2013-07-28 07:36:00,
2013-07-28 02:37:00,51.8,44.9,29.95,NNE,23,1.8,1.8,77,0.00,,,0.00,WUHU216HW,2013-07-28 07:37:00,
2013-07-28 03:00:00,51.8,44.9,29.94,NNW,338,3.6,3.6,77,0.00,,,0.00,WUHU216HW,2013-07-28 08:00:00,
2013-07-28 03:05:00,51.8,44.9,29.94,NNW,338,2.5,3.6,77,0.00,,,0.00,WUHU216HW,2013-07-28 08:05:00,
2013-07-28 03:10:00,51.8,44.9,29.94,NNW,338,2.5,2.5,77,0.00,,,0.00,WUHU216HW,2013-07-28 08:10:00,
2013-07-28 03:30:00,51.5,44.8,29.94,NW,315,1.1,1.1,78,0.00,,,0.00,WUHU216HW,2013-07-28 08:30:00,
2013-07-28 03:35:00,51.5,44.8,29.94,NNW,338,1.1,1.1,78,0.00,,,0.00,WUHU216HW,2013-07-28 08:35:00,
2013-07-28 03:36:00,51.5,44.8,29.94,NNW,338,1.1,1.1,78,0.00,,,0.00,WUHU216HW,2013-07-28 08:36:00,
2013-07-28 03:40:00,51.5,44.8,29.94,NNW,338,1.1,1.1,78,0.00,,,0.00,WUHU216HW,2013-07-28 08:40:00,
2013-07-28 04:00:00,52.0,45.1,29.95,North,0,2.2,2.2,77,0.00,,,0.00,WUHU216HW,2013-07-28 09:00:00,
2013-07-28 04:05:00,52.0,45.1,29.95,NNW,338,2.5,3.1,77,0.00,,,0.00,WUHU216HW,2013-07-28 09:05:00,
2013-07-28 04:10:00,52.0,45.1,29.95,NNW,338,2.5,2.5,77,0.00,,,0.00,WUHU216HW,2013-07-28 09:10:00,
2013-07-28 04:30:00,52.2,44.9,29.94,NNW,338,3.4,3.4,76,0.00,,,0.00,WUHU216HW,2013-07-28 09:30:00,
2013-07-28 04:31:00,52.2,44.9,29.94,NNW,338,5.6,5.6,76,0.00,,,0.00,WUHU216HW,2013-07-28 09:31:00,
2013-07-28 04:35:00,52.2,44.9,29.94,NNW,338,5.6,5.6,76,0.00,,,0.00,WUHU216HW,2013-07-28 09:35:00,
2013-07-28 04:36:00,52.2,44.9,29.94,NNW,338,5.6,5.6,76,0.00,,,0.00,WUHU216HW,2013-07-28 09:36:00,
2013-07-28 04:37:00,52.2,44.9,29.94,NNW,338,5.6,5.6,76,0.00,,,0.00,WUHU216HW,2013-07-28 09:37:00,
2013-07-28 04:40:00,52.2,44.9,29.94,NNW,338,5.6,5.6,76,0.00,,,0.00,WUHU216HW,2013-07-28 09:40:00,
2013-07-28 05:00:00,52.0,44.7,29.95,NNW,338,4.5,4.5,76,0.00,,,0.00,WUHU216HW,2013-07-28 10:00:00,
2013-07-28 05:05:00,52.2,44.9,29.95,NNW,338,4.5,4.5,76,0.00,,,0.00,WUHU216HW,2013-07-28 10:05:00,
2013-07-28 05:06:00,52.2,44.9,29.95,NNW,338,4.5,4.5,76,0.00,,,0.00,WUHU216HW,2013-07-28 10:06:00,
2013-07-28 05:10:00,52.2,44.9,29.95,NNW,338,4.5,4.5,76,0.00,,,0.00,WUHU216HW,2013-07-28 10:10:00,
2013-07-28 05:30:00,51.8,44.9,29.96,North,0,2.5,2.5,77,0.00,,,0.00,WUHU216HW,2013-07-28 10:30:00,
2013-07-28 05:31:00,51.8,44.9,29.96,North,0,2.9,2.9,77,0.00,,,0.00,WUHU216HW,2013-07-28 10:31:00,
2013-07-28 05:35:00,51.8,44.9,29.96,North,0,2.9,2.9,77,0.00,,,0.00,WUHU216HW,2013-07-28 10:35:00,
2013-07-28 05:36:00,51.8,44.9,29.96,North,0,2.9,2.9,77,0.00,,,0.00,WUHU216HW,2013-07-28 10:36:00,
2013-07-28 05:40:00,51.8,44.9,29.96,North,0,2.9,2.9,77,0.00,,,0.00,WUHU216HW,2013-07-28 10:40:00,
2013-07-28 06:00:00,51.8,44.9,29.96,NNE,23,2.7,2.7,77,0.00,,,0.00,WUHU216HW,2013-07-28 11:00:00,
2013-07-28 06:05:00,51.8,44.9,29.96,NNE,23,4.0,4.0,77,0.00,,,0.00,WUHU216HW,2013-07-28 11:05:00,
2013-07-28 06:10:00,51.8,44.9,29.96,NNE,23,4.0,4.0,77,0.00,,,0.00,WUHU216HW,2013-07-28 11:10:00,
2013-07-28 06:30:00,51.8,44.9,29.96,NNW,338,10.5,10.5,77,0.00,,,0.00,WUHU216HW,2013-07-28 11:30:00,
2013-07-28 06:31:00,51.8,44.6,29.96,North,351,8.9,10.5,76,0.00,,,0.00,WUHU216HW,2013-07-28 11:31:00,
2013-07-28 06:35:00,51.8,44.6,29.96,North,0,8.1,10.5,76,0.00,,,0.00,WUHU216HW,2013-07-28 11:35:00,
2013-07-28 06:36:00,51.8,44.6,29.96,North,0,8.1,10.5,76,0.00,,,0.00,WUHU216HW,2013-07-28 11:36:00,
2013-07-28 06:40:00,51.8,44.6,29.96,North,0,8.1,8.1,76,0.00,,,0.00,WUHU216HW,2013-07-28 11:40:00,
2013-07-28 07:00:00,51.5,44.6,29.96,NNE,23,5.4,5.4,77,0.00,,,0.00,WUHU216HW,2013-07-28 12:00:00,
2013-07-28 07:05:00,51.5,44.6,29.96,North,0,3.4,5.4,77,0.00,,,0.00,WUHU216HW,2013-07-28 12:05:00,
2013-07-28 07:10:00,51.5,44.6,29.96,North,0,3.4,3.4,77,0.00,,,0.00,WUHU216HW,2013-07-28 12:10:00,
2013-07-28 07:30:00,53.5,45.7,29.96,NNW,338,2.5,2.5,75,0.00,,,0.00,WUHU216HW,2013-07-28 12:30:00,
2013-07-28 07:31:00,53.3,45.5,29.96,NNW,338,2.0,2.5,75,0.00,,,0.00,WUHU216HW,2013-07-28 12:31:00,
2013-07-28 07:35:00,53.3,45.5,29.96,NNW,338,1.8,2.5,75,0.00,,,0.00,WUHU216HW,2013-07-28 12:35:00,
2013-07-28 07:36:00,53.3,45.5,29.96,NNW,338,1.8,2.5,75,0.00,,,0.00,WUHU216HW,2013-07-28 12:36:00,
2013-07-28 07:37:00,53.3,45.5,29.96,NNW,338,1.8,2.5,75,0.00,,,0.00,WUHU216HW,2013-07-28 12:37:00,
2013-07-28 07:40:00,53.3,45.5,29.96,NNW,338,1.8,1.8,75,0.00,,,0.00,WUHU216HW,2013-07-28 12:40:00,
2013-07-28 08:00:00,53.3,45.5,29.96,North,0,6.9,6.9,75,0.00,,,0.00,WUHU216HW,2013-07-28 13:00:00,
2013-07-28 08:05:00,53.3,45.5,29.96,North,0,6.9,6.9,75,0.00,,,0.00,WUHU216HW,2013-07-28 13:05:00,
2013-07-28 08:30:00,56.2,47.3,29.96,North,0,6.9,6.9,72,0.00,,,0.00,WUHU216HW,2013-07-28 13:30:00,
2013-07-28 08:35:00,56.2,47.3,29.96,NNW,338,3.4,6.9,72,0.00,,,0.00,WUHU216HW,2013-07-28 13:35:00,
2013-07-28 08:36:00,56.2,47.3,29.96,NNW,338,3.4,6.9,72,0.00,,,0.00,WUHU216HW,2013-07-28 13:36:00,
2013-07-28 08:40:00,56.2,47.3,29.96,NNW,338,3.4,6.9,72,0.00,,,0.00,WUHU216HW,2013-07-28 13:40:00,
2013-07-28 09:00:00,55.1,46.9,29.96,NW,315,4.7,4.7,74,0.00,,,0.00,WUHU216HW,2013-07-28 14:00:00,
2013-07-28 09:02:00,55.3,47.1,29.96,NNW,338,5.1,5.1,74,0.00,,,0.00,WUHU216HW,2013-07-28 14:02:00,
2013-07-28 09:05:00,55.3,47.1,29.96,NNW,338,5.1,5.1,74,0.00,,,0.00,WUHU216HW,2013-07-28 14:05:00,
2013-07-28 09:07:00,55.3,47.1,29.96,NNW,338,5.1,5.1,74,0.00,,,0.00,WUHU216HW,2013-07-28 14:07:00,
2013-07-28 09:30:00,56.7,47.7,29.96,WNW,293,3.8,3.8,72,0.00,,,0.00,WUHU216HW,2013-07-28 14:30:00,
2013-07-28 09:31:00,56.7,47.7,29.96,WSW,248,6.5,6.5,72,0.00,,,0.00,WUHU216HW,2013-07-28 14:31:00,
2013-07-28 09:35:00,56.7,47.7,29.96,WSW,248,6.5,6.5,72,0.00,,,0.00,WUHU216HW,2013-07-28 14:35:00,
2013-07-28 09:36:00,56.7,47.7,29.96,WSW,248,6.5,6.5,72,0.00,,,0.00,WUHU216HW,2013-07-28 14:36:00,
2013-07-28 10:00:00,58.7,49.3,29.96,North,0,6.3,6.3,71,0.00,,,0.00,WUHU216HW,2013-07-28 15:00:00,
2013-07-28 10:05:00,58.7,49.0,29.96,NNW,338,4.0,6.3,70,0.00,,,0.00,WUHU216HW,2013-07-28 15:05:00,
2013-07-28 10:10:00,58.7,49.0,29.96,NNW,338,4.0,4.0,70,0.00,,,0.00,WUHU216HW,2013-07-28 15:10:00,
2013-07-28 10:30:00,60.1,49.6,29.96,NW,315,4.0,4.0,68,0.00,,,0.00,WUHU216HW,2013-07-28 15:30:00,
2013-07-28 10:35:00,60.1,49.6,29.96,WSW,248,5.1,5.1,68,0.00,,,0.00,WUHU216HW,2013-07-28 15:35:00,
2013-07-28 10:36:00,60.1,49.6,29.96,WSW,248,5.1,5.1,68,0.00,,,0.00,WUHU216HW,2013-07-28 15:36:00,
2013-07-28 10:40:00,60.1,49.6,29.96,WSW,248,5.1,5.1,68,0.00,,,0.00,WUHU216HW,2013-07-28 15:40:00,
2013-07-28 11:00:00,62.3,50.3,29.96,NE,45,3.4,3.4,65,0.00,,,0.00,WUHU216HW,2013-07-28 16:00:00,
2013-07-28 11:05:00,62.3,50.3,29.96,NE,45,3.4,3.4,65,0.00,,,0.00,WUHU216HW,2013-07-28 16:05:00,
2013-07-28 11:30:00,63.0,50.6,29.96,NW,315,5.8,5.8,64,0.00,,,0.00,WUHU216HW,2013-07-28 16:30:00,
2013-07-28 11:31:00,63.0,51.0,29.96,North,0,9.2,9.2,65,0.00,,,0.00,WUHU216HW,2013-07-28 16:31:00,
2013-07-28 11:35:00,63.0,51.0,29.96,North,0,9.2,9.2,65,0.00,,,0.00,WUHU216HW,2013-07-28 16:35:00,
2013-07-28 11:36:00,63.0,51.0,29.96,North,0,9.2,9.2,65,0.00,,,0.00,WUHU216HW,2013-07-28 16:36:00,
2013-07-28 12:00:00,64.1,51.2,29.96,WNW,293,5.8,5.8,63,0.00,,,0.00,WUHU216HW,2013-07-28 17:00:00,
2013-07-28 12:05:00,64.1,51.6,29.96,West,270,10.3,10.3,64,0.00,,,0.00,WUHU216HW,2013-07-28 17:05:00,
2013-07-28 12:10:00,64.1,51.6,29.96,West,270,10.3,10.3,64,0.00,,,0.00,WUHU216HW,2013-07-28 17:10:00,
2013-07-28 12:30:00,65.2,53.1,29.96,NW,315,4.0,4.0,65,0.00,,,0.00,WUHU216HW,2013-07-28 17:30:00,
2013-07-28 12:35:00,65.2,53.1,29.96,North,0,3.1,4.0,65,0.00,,,0.00,WUHU216HW,2013-07-28 17:35:00,
2013-07-28 12:36:00,65.2,53.1,29.96,North,0,3.1,4.0,65,0.00,,,0.00,WUHU216HW,2013-07-28 17:36:00,
2013-07-28 12:40:00,65.2,53.1,29.96,North,0,3.1,3.1,65,0.00,,,0.00,WUHU216HW,2013-07-28 17:40:00,
2013-07-28 13:00:00,65.5,52.6,29.97,NW,315,5.4,5.4,63,0.00,,,0.00,WUHU216HW,2013-07-28 18:00:00,
2013-07-28 13:05:00,65.5,52.6,29.97,North,0,3.8,7.6,63,0.00,,,0.00,WUHU216HW,2013-07-28 18:05:00,
2013-07-28 13:10:00,65.5,52.6,29.97,North,0,3.8,7.6,63,0.00,,,0.00,WUHU216HW,2013-07-28 18:10:00,
2013-07-28 13:30:00,67.0,52.2,29.97,NW,315,8.1,8.1,59,0.00,,,0.00,WUHU216HW,2013-07-28 18:30:00,
2013-07-28 13:35:00,67.0,52.7,29.97,NW,315,6.9,8.1,60,0.00,,,0.00,WUHU216HW,2013-07-28 18:35:00,
2013-07-28 13:36:00,67.0,52.7,29.97,NW,315,6.9,8.1,60,0.00,,,0.00,WUHU216HW,2013-07-28 18:36:00,
2013-07-28 14:00:00,67.7,52.8,29.97,North,0,10.1,10.1,59,0.00,,,0.00,WUHU216HW,2013-07-28 19:00:00,
2013-07-28 14:05:00,67.7,51.8,29.98,North,0,10.1,10.1,57,0.00,,,0.00,WUHU216HW,2013-07-28 19:05:00,
2013-07-28 14:10:00,67.7,51.8,29.98,North,0,10.1,10.1,57,0.00,,,0.00,WUHU216HW,2013-07-28 19:10:00,
2013-07-28 14:30:00,68.2,53.4,29.97,NNW,338,3.1,3.1,59,0.00,,,0.00,WUHU216HW,2013-07-28 19:30:00,
2013-07-28 14:31:00,68.2,53.4,29.97,NNW,338,3.0,3.1,59,0.00,,,0.00,WUHU216HW,2013-07-28 19:31:00,
2013-07-28 14:35:00,68.2,53.4,29.97,NNW,338,2.9,3.1,59,0.00,,,0.00,WUHU216HW,2013-07-28 19:35:00,
2013-07-28 14:36:00,68.2,53.4,29.97,NNW,338,2.9,3.1,59,0.00,,,0.00,WUHU216HW,2013-07-28 19:36:00,
2013-07-28 14:40:00,68.2,53.4,29.97,NNW,338,2.9,3.1,59,0.00,,,0.00,WUHU216HW,2013-07-28 19:40:00,
2013-07-28 15:00:00,69.3,55.4,29.97,NW,315,3.1,3.1,61,0.00,,,0.00,WUHU216HW,2013-07-28 20:00:00,
2013-07-28 15:05:00,69.3,54.4,29.97,NW,315,3.8,3.8,59,0.00,,,0.00,WUHU216HW,2013-07-28 20:05:00,
2013-07-28 15:06:00,69.3,54.4,29.97,NW,315,3.8,3.8,59,0.00,,,0.00,WUHU216HW,2013-07-28 20:06:00,
2013-07-28 15:10:00,69.3,54.4,29.97,NW,315,3.8,3.8,59,0.00,,,0.00,WUHU216HW,2013-07-28 20:10:00,
2013-07-28 15:30:00,69.8,53.9,29.97,NNW,338,5.8,5.8,57,0.00,,,0.00,WUHU216HW,2013-07-28 20:30:00,
2013-07-28 15:31:00,69.8,54.5,29.97,NNW,338,5.4,5.8,58,0.00,,,0.00,WUHU216HW,2013-07-28 20:31:00,
2013-07-28 15:32:00,69.8,54.5,29.97,NNW,338,5.4,5.8,58,0.00,,,0.00,WUHU216HW,2013-07-28 20:32:00,
2013-07-28 15:35:00,69.8,54.5,29.97,NNW,338,4.7,5.8,58,0.00,,,0.00,WUHU216HW,2013-07-28 20:35:00,
2013-07-28 15:36:00,69.8,54.5,29.97,NNW,338,4.7,5.8,58,0.00,,,0.00,WUHU216HW,2013-07-28 20:36:00,
2013-07-28 15:37:00,69.8,54.5,29.97,NNW,338,4.7,5.8,58,0.00,,,0.00,WUHU216HW,2013-07-28 20:37:00,
2013-07-28 16:00:00,70.7,54.3,29.96,West,270,5.6,5.6,56,0.00,,,0.00,WUHU216HW,2013-07-28 21:00:00,
2013-07-28 16:05:00,70.9,54.9,29.96,North,0,5.4,6.3,57,0.00,,,0.00,WUHU216HW,2013-07-28 21:05:00,
2013-07-28 16:10:00,70.9,54.9,29.96,North,0,5.4,5.4,57,0.00,,,0.00,WUHU216HW,2013-07-28 21:10:00,
2013-07-28 16:30:00,70.0,54.6,29.96,NNW,338,4.3,4.3,58,0.00,,,0.00,WUHU216HW,2013-07-28 21:30:00,
2013-07-28 16:35:00,70.2,55.3,29.96,North,0,2.5,4.3,59,0.00,,,0.00,WUHU216HW,2013-07-28 21:35:00,
2013-07-28 16:36:00,70.2,55.3,29.96,North,0,2.5,4.3,59,0.00,,,0.00,WUHU216HW,2013-07-28 21:36:00,
2013-07-28 16:40:00,70.2,55.3,29.96,North,0,2.5,2.5,59,0.00,,,0.00,WUHU216HW,2013-07-28 21:40:00,
2013-07-28 17:00:00,70.9,54.9,29.97,North,0,6.9,6.9,57,0.00,,,0.00,WUHU216HW,2013-07-28 22:00:00,
2013-07-28 17:05:00,70.7,55.3,29.97,North,0,6.9,6.9,58,0.00,,,0.00,WUHU216HW,2013-07-28 22:05:00,
2013-07-28 17:06:00,70.7,55.3,29.97,North,0,6.9,6.9,58,0.00,,,0.00,WUHU216HW,2013-07-28 22:06:00,
2013-07-28 17:30:00,68.4,53.6,29.98,North,0,8.7,8.7,59,0.00,,,0.00,WUHU216HW,2013-07-28 22:30:00,
2013-07-28 17:31:00,68.4,53.6,29.98,North,0,6.5,8.7,59,0.00,,,0.00,WUHU216HW,2013-07-28 22:31:00,
2013-07-28 17:35:00,68.4,53.6,29.98,North,0,5.4,8.7,59,0.00,,,0.00,WUHU216HW,2013-07-28 22:35:00,
2013-07-28 17:36:00,68.4,53.6,29.98,North,0,5.4,8.7,59,0.00,,,0.00,WUHU216HW,2013-07-28 22:36:00,
2013-07-28 17:40:00,68.4,53.6,29.98,North,0,5.4,5.4,59,0.00,,,0.00,WUHU216HW,2013-07-28 22:40:00,
2013-07-28 18:00:00,68.6,53.7,29.98,North,0,5.1,5.1,59,0.00,,,0.00,WUHU216HW,2013-07-28 23:00:00,
2013-07-28 18:05:00,68.6,53.7,29.98,North,0,4.5,5.1,59,0.00,,,0.00,WUHU216HW,2013-07-28 23:05:00,
2013-07-28 18:06:00,68.6,53.7,29.98,North,0,4.5,5.1,59,0.00,,,0.00,WUHU216HW,2013-07-28 23:06:00,
2013-07-28 18:30:00,70.6,53.6,29.98,North,0,6.9,6.9,55,0.00,,,0.00,WUHU216HW,2013-07-28 23:30:00,
2013-07-28 18:31:00,70.6,53.6,29.98,North,0,8.9,8.9,55,0.00,,,0.00,WUHU216HW,2013-07-28 23:31:00,
2013-07-28 18:35:00,70.6,53.6,29.98,North,0,8.9,8.9,55,0.00,,,0.00,WUHU216HW,2013-07-28 23:35:00,
2013-07-28 18:36:00,70.6,53.6,29.98,North,0,8.9,8.9,55,0.00,,,0.00,WUHU216HW,2013-07-28 23:36:00,
2013-07-28 18:40:00,70.6,53.6,29.98,North,0,8.9,8.9,55,0.00,,,0.00,WUHU216HW,2013-07-28 23:40:00,
2013-07-28 19:00:00,70.7,53.7,29.99,NNW,338,9.6,9.6,55,0.00,,,0.00,WUHU216HW,2013-07-29 00:00:00,
2013-07-28 19:05:00,70.7,53.7,29.99,NNW,338,6.0,9.6,55,0.00,,,0.00,WUHU216HW,2013-07-29 00:05:00,
2013-07-28 19:10:00,70.7,53.7,29.99,NNW,338,6.0,6.0,55,0.00,,,0.00,WUHU216HW,2013-07-29 00:10:00,
2013-07-28 19:30:00,70.9,54.4,29.99,NNW,338,1.6,1.6,56,0.00,,,0.00,WUHU216HW,2013-07-29 00:30:00,
2013-07-28 19:31:00,70.9,54.4,29.99,North,0,3.4,3.4,56,0.00,,,0.00,WUHU216HW,2013-07-29 00:31:00,
2013-07-28 19:35:00,70.9,54.4,29.99,North,0,3.4,3.4,56,0.00,,,0.00,WUHU216HW,2013-07-29 00:35:00,
2013-07-28 19:37:00,70.9,54.4,29.99,North,0,3.4,3.4,56,0.00,,,0.00,WUHU216HW,2013-07-29 00:37:00,
2013-07-28 19:40:00,70.9,54.4,29.99,North,0,3.4,3.4,56,0.00,,,0.00,WUHU216HW,2013-07-29 00:40:00,
2013-07-28 20:00:00,70.2,53.7,30.00,ENE,68,3.4,3.4,56,0.00,,,0.00,WUHU216HW,2013-07-29 01:00:00,
2013-07-28 20:05:00,70.4,54.5,29.99,NNE,23,1.8,3.4,57,0.00,,,0.00,WUHU216HW,2013-07-29 01:05:00,
2013-07-28 20:10:00,70.4,54.5,29.99,NNE,23,1.8,1.8,57,0.00,,,0.00,WUHU216HW,2013-07-29 01:10:00,
2013-07-28 20:30:00,69.5,55.1,30.00,SE,135,0.0,0.0,60,0.00,,,0.00,WUHU216HW,2013-07-29 01:30:00,
2013-07-28 20:35:00,69.3,54.9,30.00,SE,135,0.0,0.0,60,0.00,,,0.00,WUHU216HW,2013-07-29 01:35:00,
2013-07-28 20:36:00,69.3,54.9,30.00,SE,135,0.0,0.0,60,0.00,,,0.00,WUHU216HW,2013-07-29 01:36:00,
2013-07-28 20:40:00,69.3,54.9,30.00,SE,135,0.0,0.0,60,0.00,,,0.00,WUHU216HW,2013-07-29 01:40:00,
2013-07-28 21:00:00,64.3,53.9,30.00,South,180,0.7,0.7,69,0.00,,,0.00,WUHU216HW,2013-07-29 02:00:00,
2013-07-28 21:01:00,64.3,53.9,30.00,SSE,158,0.7,0.7,69,0.00,,,0.00,WUHU216HW,2013-07-29 02:01:00,
2013-07-28 21:05:00,64.3,53.9,30.00,SSE,158,0.7,0.7,69,0.00,,,0.00,WUHU216HW,2013-07-29 02:05:00,
2013-07-28 21:06:00,64.3,53.9,30.00,SSE,158,0.7,0.7,69,0.00,,,0.00,WUHU216HW,2013-07-29 02:06:00,
2013-07-28 21:07:00,64.3,53.9,30.00,SSE,158,0.7,0.7,69,0.00,,,0.00,WUHU216HW,2013-07-29 02:07:00,
2013-07-28 21:30:00,60.8,52.2,30.02,SSE,158,0.7,0.7,73,0.00,,,0.00,WUHU216HW,2013-07-29 02:30:00,
2013-07-28 21:35:00,60.8,52.6,30.02,SSE,158,0.4,0.7,74,0.00,,,0.00,WUHU216HW,2013-07-29 02:35:00,
2013-07-28 21:36:00,60.8,52.6,30.02,SSE,158,0.4,0.7,74,0.00,,,0.00,WUHU216HW,2013-07-29 02:36:00,
2013-07-28 22:00:00,59.8,52.6,30.02,SSW,203,0.2,0.2,77,0.00,,,0.00,WUHU216HW,2013-07-29 03:00:00,
2013-07-28 22:02:00,59.8,52.6,30.02,SSW,203,0.0,0.2,77,0.00,,,0.00,WUHU216HW,2013-07-29 03:02:00,
2013-07-28 22:05:00,59.8,52.6,30.02,SSW,203,0.0,0.2,77,0.00,,,0.00,WUHU216HW,2013-07-29 03:05:00,
2013-07-28 22:06:00,59.8,52.6,30.02,SSW,203,0.0,0.2,77,0.00,,,0.00,WUHU216HW,2013-07-29 03:06:00,
2013-07-28 22:08:00,59.8,52.6,30.02,SSW,203,0.0,0.2,77,0.00,,,0.00,WUHU216HW,2013-07-29 03:08:00,
2013-07-28 22:30:00,58.3,51.8,30.03,SE,135,0.9,0.9,79,0.00,,,0.00,WUHU216HW,2013-07-29 03:30:00,
2013-07-28 22:32:00,58.3,51.8,30.03,SE,135,0.9,0.9,79,0.00,,,0.00,WUHU216HW,2013-07-29 03:32:00,
2013-07-28 22:35:00,58.3,51.8,30.03,SE,135,0.9,0.9,79,0.00,,,0.00,WUHU216HW,2013-07-29 03:35:00,
2013-07-28 22:36:00,58.3,51.8,30.03,SE,135,0.9,0.9,79,0.00,,,0.00,WUHU216HW,2013-07-29 03:36:00,
2013-07-28 22:37:00,58.3,51.8,30.03,SE,135,0.9,0.9,79,0.00,,,0.00,WUHU216HW,2013-07-29 03:37:00,
2013-07-28 23:00:00,56.9,51.1,30.03,SSE,158,0.4,0.4,81,0.00,,,0.00,WUHU216HW,2013-07-29 04:00:00,
2013-07-28 23:01:00,56.9,51.1,30.03,SSE,158,0.4,0.4,81,0.00,,,0.00,WUHU216HW,2013-07-29 04:01:00,
2013-07-28 23:02:00,56.9,51.1,30.03,SSE,158,0.4,0.4,81,0.00,,,0.00,WUHU216HW,2013-07-29 04:02:00,
2013-07-28 23:06:00,56.9,51.1,30.03,SSE,158,0.4,0.4,81,0.00,,,0.00,WUHU216HW,2013-07-29 04:06:00,
2013-07-28 23:07:00,56.9,51.1,30.03,SSE,158,0.4,0.4,81,0.00,,,0.00,WUHU216HW,2013-07-29 04:07:00,
2013-07-28 23:30:00,56.2,50.4,30.03,SE,135,0.0,0.0,81,0.00,,,0.00,WUHU216HW,2013-07-29 04:30:00,
2013-07-28 23:35:00,56.2,50.4,30.03,SE,135,0.0,0.0,81,0.00,,,0.00,WUHU216HW,2013-07-29 04:35:00,
2013-07-28 23:36:00,56.2,50.4,30.03,SE,135,0.0,0.0,81,0.00,,,0.00,WUHU216HW,2013-07-29 04:36:00,
2013-07-28 23:40:00,56.2,50.4,30.03,SE,135,0.0,0.0,81,0.00,,,0.00,WUHU216HW,2013-07-29 04:40:00,